| time (UTC) | temp F | wind direction | speed knots | gust knots | rain 1hr in | rain 24hr in | rain mn in | humidity % | barometer mb |
| 20260503214528 | 62 | 203 | 4.3 | 14.8 | 0.00 | 0.03 | 0.02 | 52 | 1011.4 |
| 20260503213057 | 63 | 181 | 6.1 | 14.8 | 0.00 | 0.03 | 0.02 | 50 | 1011.6 |
| 20260503211515 | 64 | 184 | 4.3 | 13.9 | 0.00 | 0.03 | 0.02 | 49 | 1011.7 |
| 20260503210038 | 62 | 224 | 6.1 | 15.6 | 0.00 | 0.03 | 0.02 | 51 | 1011.9 |
| 20260503204607 | 61 | 209 | 6.1 | 16.5 | 0.00 | 0.03 | 0.02 | 52 | 1012.1 |
| 20260503203024 | 61 | 124 | 5.2 | 20.0 | 0.00 | 0.03 | 0.02 | 52 | 1012.6 |
| 20260503201606 | 62 | 322 | 4.3 | 17.4 | 0.00 | 0.03 | 0.02 | 50 | 1012.9 |
| 20260503200117 | 62 | 248 | 7.0 | 18.2 | 0.00 | 0.03 | 0.02 | 50 | 1013.1 |
| 20260503194548 | 63 | 160 | 5.2 | 18.2 | 0.00 | 0.03 | 0.02 | 49 | 1013.5 |
| 20260503193113 | 63 | 213 | 5.2 | 14.8 | 0.00 | 0.03 | 0.02 | 49 | 1013.9 |
| 20260503191530 | 62 | 229 | 4.3 | 12.2 | 0.00 | 0.03 | 0.02 | 55 | 1014.4 |
| 20260503190038 | 59 | 179 | 5.2 | 17.4 | 0.00 | 0.04 | 0.02 | 61 | 1015.0 |
| 20260503184610 | 59 | 189 | 5.2 | 11.3 | 0.00 | 0.04 | 0.02 | 54 | 1015.0 |
| 20260503183020 | 59 | 178 | 4.3 | 10.4 | 0.00 | 0.04 | 0.02 | 53 | 1015.9 |
| 20260503181609 | 60 | 188 | 5.2 | 11.3 | 0.00 | 0.04 | 0.02 | 55 | 1015.7 |
| 20260503180113 | 59 | 180 | 3.5 | 12.2 | 0.01 | 0.04 | 0.02 | 55 | 1015.5 |
| 20260503174545 | 58 | 209 | 6.1 | 13.0 | 0.01 | 0.04 | 0.02 | 56 | 1015.9 |
| 20260503173113 | 57 | 169 | 5.2 | 12.2 | 0.01 | 0.04 | 0.02 | 58 | 1016.4 |
| 20260503171539 | 57 | 219 | 6.1 | 12.2 | 0.01 | 0.04 | 0.02 | 58 | 1016.8 |
| 20260503150105 | 58 | 178 | 8.7 | 16.5 | 0.00 | 0.04 | 0.01 | 55 | 1018.2 |
| 20260503120126 | 45 | 205 | 2.6 | 9.6 | 0.00 | 0.04 | 0.01 | 69 | 1018.6 |
| 20260503081514 | 41 | 230 | 1.7 | 7.0 | 0.01 | 0.05 | 0.01 | 71 | 1018.3 |
| 20260503071606 | 39 | 201 | 0.9 | 3.5 | 0.00 | 0.04 | 0.00 | 75 | 1018.6 |
| 20260503054514 | 39 | 341 | 0.0 | 1.7 | 0.00 | 0.04 | 0.00 | 75 | 1019.1 |
| 20260503053053 | 39 | 340 | 0.0 | 0.0 | 0.00 | 0.04 | 0.00 | 75 | 1019.2 |
| 20260503051508 | 39 | 341 | 0.0 | 0.0 | 0.00 | 0.04 | 0.00 | 74 | 1019.2 |
| 20260503050032 | 39 | 340 | 0.0 | 0.0 | 0.00 | 0.04 | 0.00 | 74 | 1019.3 |
| 20260503044619 | 40 | 341 | 0.0 | 0.0 | 0.00 | 0.04 | 0.00 | 75 | 1019.3 |
| 20260503043017 | 40 | 341 | 0.0 | 0.0 | 0.00 | 0.04 | 0.00 | 74 | 1019.2 |
| 20260503041613 | 40 | 341 | 0.0 | 0.0 | 0.00 | 0.04 | 0.00 | 74 | 1019.2 |
| 20260503040112 | 40 | 341 | 0.0 | 0.9 | 0.00 | 0.05 | 0.04 | 72 | 1019.2 |
| 20260503034540 | 41 | 341 | 0.0 | 0.9 | 0.00 | 0.05 | 0.04 | 71 | 1019.4 |
| 20260503033118 | 41 | 342 | 0.0 | 0.0 | 0.00 | 0.05 | 0.04 | 71 | 1019.3 |
| 20260503031538 | 42 | 341 | 0.0 | 0.9 | 0.00 | 0.05 | 0.04 | 71 | 1019.4 |
| 20260503030054 | 42 | 341 | 0.0 | 0.0 | 0.00 | 0.05 | 0.04 | 69 | 1019.4 |
| 20260503024505 | 43 | 341 | 0.0 | 1.7 | 0.00 | 0.05 | 0.04 | 69 | 1019.4 |
| 20260503023052 | 43 | 340 | 0.0 | 1.7 | 0.00 | 0.05 | 0.04 | 67 | 1019.4 |
| 20260503021502 | 44 | 341 | 0.0 | 0.9 | 0.00 | 0.05 | 0.04 | 65 | 1019.3 |
| 20260503020013 | 45 | 340 | 0.0 | 0.9 | 0.00 | 0.05 | 0.04 | 62 | 1019.3 |
| 20260503014556 | 46 | 341 | 0.0 | 0.9 | 0.00 | 0.05 | 0.04 | 60 | 1019.2 |
| 20260503013011 | 47 | 342 | 0.0 | 0.9 | 0.00 | 0.05 | 0.04 | 57 | 1019.0 |
| 20260503011605 | 48 | 341 | 0.0 | 0.9 | 0.00 | 0.05 | 0.04 | 55 | 1019.0 |
| 20260503010109 | 50 | 341 | 0.0 | 1.7 | 0.00 | 0.05 | 0.04 | 51 | 1018.9 |
| 20260503004535 | 51 | 340 | 0.0 | 0.9 | 0.00 | 0.05 | 0.04 | 47 | 1018.9 |
| 20260503003105 | 52 | 342 | 0.0 | 2.6 | 0.00 | 0.05 | 0.04 | 44 | 1019.0 |
| 20260503001521 | 53 | 341 | 0.0 | 1.7 | 0.01 | 0.05 | 0.04 | 42 | 1018.8 |
| 20260503000044 | 54 | 341 | 0.9 | 5.2 | 0.01 | 0.05 | 0.04 | 41 | 1018.8 |
| 20260502234615 | 54 | 15 | 1.7 | 7.0 | 0.01 | 0.05 | 0.04 | 40 | 1018.9 |
| 20260502233041 | 55 | 334 | 1.7 | 4.3 | 0.01 | 0.05 | 0.04 | 39 | 1018.9 |
| 20260502231612 | 54 | 336 | 2.6 | 8.7 | 0.00 | 0.04 | 0.03 | 39 | 1018.8 |
| 20260502230008 | 54 | 308 | 1.7 | 8.7 | 0.00 | 0.05 | 0.03 | 38 | 1019.0 |
| 20260502224555 | 54 | 304 | 3.5 | 9.6 | 0.00 | 0.05 | 0.03 | 40 | 1018.9 |
| 20260502223008 | 54 | 274 | 4.3 | 9.6 | 0.00 | 0.05 | 0.03 | 38 | 1019.0 |
| 20260502221548 | 54 | 326 | 3.5 | 10.4 | 0.00 | 0.05 | 0.03 | 39 | 1019.0 |
| 20260502220146 | 54 | 296 | 2.6 | 9.6 | 0.00 | 0.05 | 0.03 | 41 | 1019.1 |